createdAt,value
2018-08-06T00:00:17.912Z,17.64
2018-08-06T00:01:38.808Z,17.70
2018-08-06T00:02:17.774Z,17.58
2018-08-06T00:03:17.690Z,17.48
2018-08-06T00:04:17.619Z,17.44
2018-08-06T00:05:17.538Z,17.43
2018-08-06T00:06:17.473Z,17.40
2018-08-06T00:07:38.382Z,17.35
2018-08-06T00:08:17.326Z,17.38
2018-08-06T00:09:17.252Z,17.48
2018-08-06T00:10:17.179Z,17.53
2018-08-06T00:11:17.104Z,17.57
2018-08-06T00:12:17.034Z,17.63
2018-08-06T00:13:37.944Z,17.53
2018-08-06T00:14:16.892Z,17.51
2018-08-06T00:15:16.821Z,17.51
2018-08-06T00:16:16.749Z,17.51
2018-08-06T00:17:16.664Z,17.74
2018-08-06T00:18:16.598Z,17.70
2018-08-06T00:19:37.496Z,17.73
2018-08-06T00:20:16.457Z,17.74
2018-08-06T00:21:16.376Z,17.79
2018-08-06T00:22:16.308Z,17.85
2018-08-06T00:23:16.225Z,17.84
2018-08-06T00:24:16.164Z,17.95
2018-08-06T00:25:37.065Z,17.91
2018-08-06T00:26:16.023Z,17.89
2018-08-06T00:27:15.939Z,18.02
2018-08-06T00:28:15.869Z,17.89
2018-08-06T00:29:15.797Z,17.95
2018-08-06T00:30:15.757Z,17.85
2018-08-06T00:31:36.631Z,17.88
2018-08-06T00:32:15.576Z,17.87
2018-08-06T00:33:15.495Z,17.71
2018-08-06T00:34:15.432Z,17.73
2018-08-06T00:35:15.357Z,17.74
2018-08-06T00:36:15.286Z,17.63
2018-08-06T00:37:36.196Z,17.74
2018-08-06T00:38:15.146Z,17.63
2018-08-06T00:39:15.061Z,17.53
2018-08-06T00:40:15.006Z,17.57
2018-08-06T00:41:14.915Z,17.32
2018-08-06T00:42:14.848Z,17.33
2018-08-06T00:43:35.758Z,17.26
2018-08-06T00:44:14.706Z,17.18
2018-08-06T00:45:14.626Z,17.26
2018-08-06T00:46:14.562Z,17.21
2018-08-06T00:47:14.477Z,17.18
2018-08-06T00:48:14.420Z,17.28
2018-08-06T00:49:35.314Z,17.29
2018-08-06T00:50:14.282Z,17.40
2018-08-06T00:51:14.181Z,17.53
2018-08-06T00:52:14.117Z,17.58
2018-08-06T00:53:14.041Z,17.63
2018-08-06T00:54:13.973Z,17.71
2018-08-06T00:55:34.874Z,17.67
2018-08-06T00:56:13.825Z,17.71
2018-08-06T00:57:13.747Z,17.66
2018-08-06T00:58:13.679Z,17.73
2018-08-06T00:59:13.605Z,17.55
2018-08-06T01:00:13.547Z,17.44
2018-08-06T01:01:34.444Z,17.50
2018-08-06T01:02:13.408Z,17.38
2018-08-06T01:03:13.310Z,17.21
2018-08-06T01:04:13.247Z,17.14
2018-08-06T01:05:13.160Z,17.00
2018-08-06T01:06:13.090Z,16.93
2018-08-06T01:07:34.000Z,16.95
2018-08-06T01:08:12.951Z,16.84
2018-08-06T01:09:12.871Z,16.88
2018-08-06T01:10:12.812Z,16.85
2018-08-06T01:11:12.730Z,16.77
2018-08-06T01:12:12.662Z,16.73
2018-08-06T01:13:33.554Z,16.70
2018-08-06T01:14:12.513Z,16.66
2018-08-06T01:15:12.431Z,16.67
2018-08-06T01:16:12.361Z,16.66
2018-08-06T01:17:12.284Z,16.77
2018-08-06T01:18:12.219Z,16.84
2018-08-06T01:19:33.115Z,16.84
2018-08-06T01:20:12.078Z,16.92
2018-08-06T01:21:11.986Z,16.93
2018-08-06T01:22:11.920Z,16.96
2018-08-06T01:23:11.839Z,17.03
2018-08-06T01:24:11.773Z,17.13
2018-08-06T01:25:32.677Z,17.10
2018-08-06T01:26:11.634Z,17.02
2018-08-06T01:27:11.549Z,17.00
2018-08-06T01:28:11.491Z,16.81
2018-08-06T01:29:11.407Z,16.73
2018-08-06T01:30:11.361Z,16.63
2018-08-06T01:31:32.243Z,16.44
2018-08-06T01:32:11.194Z,16.41
2018-08-06T01:33:11.110Z,16.41
2018-08-06T01:34:11.046Z,16.34
2018-08-06T01:35:10.964Z,16.33
2018-08-06T01:36:10.916Z,16.35
2018-08-06T01:37:31.803Z,16.35
2018-08-06T01:38:10.750Z,16.41
2018-08-06T01:39:10.671Z,16.44
2018-08-06T01:40:10.602Z,16.47
2018-08-06T01:41:10.518Z,16.56
2018-08-06T01:42:10.452Z,16.66
2018-08-06T01:43:31.355Z,16.55
2018-08-06T01:44:10.305Z,16.50
2018-08-06T01:45:10.223Z,16.52
2018-08-06T01:46:10.158Z,16.48
2018-08-06T01:47:10.078Z,16.57
2018-08-06T01:48:10.015Z,16.59
2018-08-06T01:49:30.915Z,16.55
2018-08-06T01:50:09.868Z,16.59
2018-08-06T01:51:09.784Z,16.63
2018-08-06T01:52:09.723Z,16.66
2018-08-06T01:53:09.635Z,16.71
2018-08-06T01:54:09.575Z,16.71
2018-08-06T01:55:30.532Z,16.82
2018-08-06T01:56:09.425Z,16.78
2018-08-06T01:57:09.339Z,16.85
2018-08-06T01:58:09.276Z,16.98
2018-08-06T01:59:09.205Z,16.95
2018-08-06T02:00:09.131Z,16.92
2018-08-06T02:01:30.027Z,16.92
2018-08-06T02:02:08.989Z,16.71
2018-08-06T02:03:08.900Z,16.56
2018-08-06T02:04:08.838Z,16.42
2018-08-06T02:05:08.752Z,16.42
2018-08-06T02:06:08.692Z,16.22
2018-08-06T02:07:29.589Z,16.23
2018-08-06T02:08:08.542Z,16.08
2018-08-06T02:09:08.454Z,16.08
2018-08-06T02:10:08.392Z,16.08
2018-08-06T02:11:08.316Z,16.08
2018-08-06T02:12:08.246Z,16.14
2018-08-06T02:13:29.145Z,16.10
2018-08-06T02:14:08.096Z,16.18
2018-08-06T02:15:08.015Z,16.22
2018-08-06T02:16:07.948Z,16.25
2018-08-06T02:17:07.869Z,16.25
2018-08-06T02:18:07.804Z,16.35
2018-08-06T02:19:28.698Z,16.30
2018-08-06T02:20:07.650Z,16.38
2018-08-06T02:21:07.571Z,16.44
2018-08-06T02:22:07.504Z,16.41
2018-08-06T02:23:07.430Z,16.33
2018-08-06T02:24:07.360Z,16.25
2018-08-06T02:25:28.327Z,16.26
2018-08-06T02:26:07.214Z,16.14
2018-08-06T02:27:07.128Z,16.25
2018-08-06T02:28:08.065Z,16.30
2018-08-06T02:29:06.982Z,16.30
2018-08-06T02:30:06.915Z,16.27
2018-08-06T02:31:27.820Z,16.34
2018-08-06T02:32:06.775Z,16.34
2018-08-06T02:33:06.683Z,16.30
2018-08-06T02:34:06.635Z,16.35
2018-08-06T02:35:06.542Z,16.37
2018-08-06T02:36:06.470Z,16.44
2018-08-06T02:37:27.368Z,16.29
2018-08-06T02:38:06.329Z,16.45
2018-08-06T02:39:06.243Z,16.41
2018-08-06T02:40:06.182Z,16.44
2018-08-06T02:41:06.091Z,16.40
2018-08-06T02:42:06.027Z,16.41
2018-08-06T02:43:26.928Z,16.29
2018-08-06T02:44:05.886Z,16.15
2018-08-06T02:45:05.798Z,16.10
2018-08-06T02:46:05.730Z,16.00
2018-08-06T02:47:05.646Z,16.04
2018-08-06T02:48:05.585Z,15.96
2018-08-06T02:49:26.481Z,15.99
2018-08-06T02:50:05.440Z,15.92
2018-08-06T02:51:05.356Z,15.82
2018-08-06T02:52:05.285Z,15.78
2018-08-06T02:53:05.201Z,15.76
2018-08-06T02:54:05.140Z,15.73
2018-08-06T02:55:26.075Z,15.66
2018-08-06T02:56:04.993Z,15.73
2018-08-06T02:57:04.904Z,15.73
2018-08-06T02:58:04.843Z,15.81
2018-08-06T02:59:04.819Z,15.82
2018-08-06T03:00:04.737Z,15.88
2018-08-06T03:01:25.594Z,15.91
2018-08-06T03:02:04.546Z,15.85
2018-08-06T03:03:04.471Z,15.91
2018-08-06T03:04:04.417Z,16.00
2018-08-06T03:05:04.314Z,16.00
2018-08-06T03:06:04.249Z,16.01
2018-08-06T03:07:25.147Z,16.08
2018-08-06T03:08:04.103Z,16.14
2018-08-06T03:09:04.033Z,16.18
2018-08-06T03:10:03.974Z,16.08
2018-08-06T03:11:03.870Z,16.08
2018-08-06T03:12:03.800Z,16.00
2018-08-06T03:13:24.706Z,15.92
2018-08-06T03:14:03.674Z,15.92
2018-08-06T03:15:03.580Z,15.91
2018-08-06T03:16:03.510Z,15.91
2018-08-06T03:17:03.425Z,15.94
2018-08-06T03:18:03.369Z,15.99
2018-08-06T03:19:24.264Z,16.06
2018-08-06T03:20:03.210Z,15.88
2018-08-06T03:21:03.127Z,15.70
2018-08-06T03:22:03.064Z,15.61
2018-08-06T03:23:02.980Z,15.52
2018-08-06T03:24:02.916Z,15.52
2018-08-06T03:25:23.811Z,15.35
2018-08-06T03:26:02.767Z,15.26
2018-08-06T03:27:02.681Z,15.20
2018-08-06T03:28:02.612Z,15.15
2018-08-06T03:29:02.528Z,15.12
2018-08-06T03:30:02.469Z,15.12
2018-08-06T03:31:23.367Z,15.15
2018-08-06T03:32:02.322Z,15.26
2018-08-06T03:33:02.232Z,15.24
2018-08-06T03:34:02.168Z,15.24
2018-08-06T03:35:02.091Z,15.39
2018-08-06T03:36:02.022Z,15.42
2018-08-06T03:37:22.919Z,15.49
2018-08-06T03:38:01.893Z,15.39
2018-08-06T03:39:01.792Z,15.51
2018-08-06T03:40:01.720Z,15.49
2018-08-06T03:41:01.643Z,15.35
2018-08-06T03:42:01.594Z,15.35
2018-08-06T03:43:22.489Z,15.39
2018-08-06T03:44:01.421Z,15.34
2018-08-06T03:45:01.343Z,15.41
2018-08-06T03:46:01.286Z,15.39
2018-08-06T03:47:01.195Z,15.42
2018-08-06T03:48:02.125Z,15.34
2018-08-06T03:49:22.067Z,15.27
2018-08-06T03:50:00.987Z,15.24
2018-08-06T03:51:00.897Z,15.16
2018-08-06T03:52:00.828Z,15.01
2018-08-06T03:53:00.748Z,14.94
2018-08-06T03:54:00.683Z,14.78
2018-08-06T03:55:21.583Z,14.74
2018-08-06T03:56:00.528Z,14.83
2018-08-06T03:57:00.448Z,14.79
2018-08-06T03:58:00.384Z,14.83
2018-08-06T03:59:00.298Z,14.84
2018-08-06T04:00:00.230Z,14.83
2018-08-06T04:01:21.136Z,14.74
2018-08-06T04:02:00.094Z,14.71
2018-08-06T04:03:00.006Z,14.69
2018-08-06T04:03:59.935Z,14.71
2018-08-06T04:04:59.866Z,14.68
2018-08-06T04:05:59.774Z,14.75
2018-08-06T04:07:20.692Z,14.69
2018-08-06T04:07:59.628Z,14.74
2018-08-06T04:08:59.636Z,14.72
2018-08-06T04:09:59.480Z,14.71
2018-08-06T04:10:59.445Z,14.84
2018-08-06T04:11:59.329Z,14.79
2018-08-06T04:13:20.349Z,14.85
2018-08-06T04:13:59.178Z,14.93
2018-08-06T04:14:59.113Z,14.95
2018-08-06T04:15:59.029Z,15.06
2018-08-06T04:16:58.967Z,15.12
2018-08-06T04:17:58.879Z,15.16
2018-08-06T04:19:19.796Z,15.23
2018-08-06T04:19:58.734Z,15.31
2018-08-06T04:20:58.664Z,15.41
2018-08-06T04:21:58.588Z,15.38
2018-08-06T04:22:58.514Z,15.38
2018-08-06T04:23:58.428Z,15.41
2018-08-06T04:25:19.361Z,15.38
2018-08-06T04:25:58.285Z,15.38
2018-08-06T04:26:58.225Z,15.39
2018-08-06T04:27:58.134Z,15.41
2018-08-06T04:28:58.071Z,15.41
2018-08-06T04:29:57.982Z,15.46
2018-08-06T04:31:18.896Z,15.52
2018-08-06T04:31:57.831Z,15.51
2018-08-06T04:32:57.810Z,15.45
2018-08-06T04:33:57.680Z,15.60
2018-08-06T04:34:57.621Z,15.57
2018-08-06T04:35:57.546Z,15.67
2018-08-06T04:37:18.449Z,15.78
2018-08-06T04:37:57.382Z,15.78
2018-08-06T04:38:57.322Z,15.76
2018-08-06T04:39:57.236Z,15.83
2018-08-06T04:40:57.172Z,15.78
2018-08-06T04:41:57.086Z,15.81
2018-08-06T04:43:18.002Z,15.86
2018-08-06T04:43:56.940Z,15.89
2018-08-06T04:44:56.867Z,16.00
2018-08-06T04:45:56.796Z,16.04
2018-08-06T04:46:56.720Z,16.04
2018-08-06T04:47:56.637Z,16.12
2018-08-06T04:49:17.560Z,16.14
2018-08-06T04:49:56.494Z,16.16
2018-08-06T04:50:56.420Z,16.12
2018-08-06T04:51:56.337Z,16.29
2018-08-06T04:52:56.273Z,16.29
2018-08-06T04:53:56.198Z,16.33
2018-08-06T04:55:17.106Z,16.35
2018-08-06T04:55:56.049Z,16.41
2018-08-06T04:56:55.970Z,16.41
2018-08-06T04:57:55.894Z,16.34
2018-08-06T04:58:55.824Z,16.35
2018-08-06T04:59:55.743Z,16.41
2018-08-06T05:01:16.660Z,16.44
2018-08-06T05:01:55.598Z,16.53
2018-08-06T05:02:55.517Z,16.59
2018-08-06T05:03:55.461Z,16.62
2018-08-06T05:04:55.367Z,16.63
2018-08-06T05:05:55.309Z,16.71
2018-08-06T05:07:16.205Z,16.65
2018-08-06T05:07:55.155Z,16.75
2018-08-06T05:08:55.073Z,16.80
2018-08-06T05:09:55.009Z,16.85
2018-08-06T05:10:54.922Z,16.81
2018-08-06T05:11:54.854Z,16.84
2018-08-06T05:13:15.760Z,16.98
2018-08-06T05:13:54.709Z,16.93
2018-08-06T05:14:54.625Z,16.99
2018-08-06T05:15:54.558Z,17.05
2018-08-06T05:16:54.475Z,17.05
2018-08-06T05:17:54.415Z,17.07
2018-08-06T05:19:15.314Z,17.14
2018-08-06T05:19:54.268Z,17.08
2018-08-06T05:20:54.181Z,17.23
2018-08-06T05:21:54.124Z,17.15
2018-08-06T05:22:54.031Z,17.26
2018-08-06T05:23:53.978Z,17.23
2018-08-06T05:25:14.864Z,17.17
2018-08-06T05:25:53.820Z,17.18
2018-08-06T05:26:53.737Z,17.23
2018-08-06T05:27:53.676Z,17.18
2018-08-06T05:28:53.587Z,17.20
2018-08-06T05:29:53.519Z,17.30
2018-08-06T05:31:14.464Z,17.23
2018-08-06T05:31:53.378Z,17.30
2018-08-06T05:32:53.294Z,17.32
2018-08-06T05:33:53.227Z,17.29
2018-08-06T05:34:53.149Z,17.39
2018-08-06T05:35:53.076Z,17.39
2018-08-06T05:37:13.978Z,17.57
2018-08-06T05:37:52.927Z,17.58
2018-08-06T05:38:52.849Z,17.57
2018-08-06T05:39:52.783Z,17.67
2018-08-06T05:40:52.695Z,17.64
2018-08-06T05:41:52.639Z,17.63
2018-08-06T05:43:13.537Z,17.64
2018-08-06T05:43:52.488Z,17.69
2018-08-06T05:44:52.402Z,17.67
2018-08-06T05:45:52.339Z,17.77
2018-08-06T05:46:52.256Z,17.85
2018-08-06T05:47:52.197Z,17.84
2018-08-06T05:49:13.086Z,17.92
2018-08-06T05:49:52.038Z,17.89
2018-08-06T05:50:51.962Z,17.95
2018-08-06T05:51:51.895Z,18.03
2018-08-06T05:52:51.809Z,18.10
2018-08-06T05:53:51.745Z,18.11
2018-08-06T05:55:12.653Z,18.18
2018-08-06T05:55:51.595Z,18.11
2018-08-06T05:56:51.524Z,18.06
2018-08-06T05:57:51.460Z,18.09
2018-08-06T05:58:51.370Z,18.14
2018-08-06T05:59:51.299Z,18.16
2018-08-06T06:01:12.207Z,18.25
2018-08-06T06:01:51.161Z,18.27
2018-08-06T06:02:51.080Z,18.24
2018-08-06T06:03:51.010Z,18.29
2018-08-06T06:04:50.928Z,18.39
2018-08-06T06:05:50.864Z,18.46
2018-08-06T06:07:11.758Z,18.42
2018-08-06T06:07:50.715Z,18.53
2018-08-06T06:08:50.640Z,18.58
2018-08-06T06:09:50.578Z,18.58
2018-08-06T06:10:50.486Z,18.67
2018-08-06T06:11:50.422Z,18.59
2018-08-06T06:13:11.322Z,18.65
2018-08-06T06:13:50.278Z,18.62
2018-08-06T06:14:50.193Z,18.74
2018-08-06T06:15:50.124Z,18.82
2018-08-06T06:16:50.049Z,18.73
2018-08-06T06:17:49.978Z,18.95
2018-08-06T06:19:10.921Z,18.94
2018-08-06T06:19:49.832Z,18.95
2018-08-06T06:20:49.751Z,19.02
2018-08-06T06:21:49.691Z,19.17
2018-08-06T06:22:49.607Z,19.27
2018-08-06T06:23:49.539Z,19.28
2018-08-06T06:25:10.444Z,19.28
2018-08-06T06:25:49.428Z,19.36
2018-08-06T06:26:49.312Z,19.32
2018-08-06T06:27:49.247Z,19.39
2018-08-06T06:28:49.164Z,19.45
2018-08-06T06:29:49.101Z,19.42
2018-08-06T06:31:10.000Z,19.50
2018-08-06T06:31:48.950Z,19.60
2018-08-06T06:32:48.870Z,19.63
2018-08-06T06:33:48.808Z,19.55
2018-08-06T06:34:48.814Z,19.58
2018-08-06T06:35:48.653Z,19.69
2018-08-06T06:37:09.565Z,19.68
2018-08-06T06:37:48.627Z,19.75
2018-08-06T06:38:48.448Z,19.86
2018-08-06T06:39:48.370Z,19.94
2018-08-06T06:40:48.297Z,19.94
2018-08-06T06:41:48.316Z,20.09
2018-08-06T06:43:09.133Z,20.08
2018-08-06T06:43:48.071Z,20.16
2018-08-06T06:44:48.020Z,20.27
2018-08-06T06:45:47.927Z,20.30
2018-08-06T06:46:47.867Z,20.31
2018-08-06T06:47:47.780Z,20.37
2018-08-06T06:49:08.754Z,20.47
2018-08-06T06:49:47.634Z,20.50
2018-08-06T06:50:47.563Z,20.57
2018-08-06T06:51:47.494Z,20.53
2018-08-06T06:52:47.421Z,20.64
2018-08-06T06:53:47.340Z,20.69
2018-08-06T06:55:09.263Z,20.65
2018-08-06T06:55:47.198Z,20.80
2018-08-06T06:56:47.134Z,20.87
2018-08-06T06:57:47.054Z,20.90
2018-08-06T06:58:46.997Z,20.99
2018-08-06T06:59:46.912Z,21.08
2018-08-06T07:01:07.835Z,21.11
2018-08-06T07:01:46.766Z,21.11
2018-08-06T07:02:46.696Z,21.16
2018-08-06T07:03:46.621Z,21.29
2018-08-06T07:04:46.554Z,21.35
2018-08-06T07:05:46.480Z,21.36
2018-08-06T07:07:07.393Z,21.39
2018-08-06T07:07:46.324Z,21.53
2018-08-06T07:08:46.257Z,21.53
2018-08-06T07:09:46.191Z,21.57
2018-08-06T07:10:46.116Z,21.60
2018-08-06T07:11:46.055Z,21.72
2018-08-06T07:13:06.952Z,21.70
2018-08-06T07:13:46.072Z,21.89
2018-08-06T07:14:45.829Z,22.00
2018-08-06T07:15:45.757Z,22.05
2018-08-06T07:16:45.699Z,22.01
2018-08-06T07:17:45.618Z,22.15
2018-08-06T07:19:06.526Z,22.05
2018-08-06T07:19:45.477Z,22.15
2018-08-06T07:20:45.389Z,22.22
2018-08-06T07:21:45.355Z,22.26
2018-08-06T07:22:45.250Z,22.39
2018-08-06T07:23:45.199Z,22.44
2018-08-06T07:25:06.085Z,22.44
2018-08-06T07:25:45.040Z,22.56
2018-08-06T07:26:44.962Z,22.60
2018-08-06T07:27:44.895Z,22.69
2018-08-06T07:28:44.822Z,22.75
2018-08-06T07:29:44.767Z,22.74
2018-08-06T07:31:05.659Z,22.83
2018-08-06T07:31:44.615Z,22.84
2018-08-06T07:32:44.547Z,22.99
2018-08-06T07:33:44.531Z,22.99
2018-08-06T07:34:44.394Z,23.02
2018-08-06T07:35:44.329Z,23.08
2018-08-06T07:37:05.232Z,23.00
2018-08-06T07:37:44.188Z,23.12
2018-08-06T07:38:44.117Z,23.29
2018-08-06T07:39:44.048Z,23.26
2018-08-06T07:40:43.982Z,23.42
2018-08-06T07:41:43.906Z,23.49
2018-08-06T07:43:04.841Z,23.53
2018-08-06T07:43:43.770Z,23.70
2018-08-06T07:44:43.689Z,23.64
2018-08-06T07:45:43.624Z,23.83
2018-08-06T07:46:43.539Z,23.89
2018-08-06T07:47:43.476Z,23.89
2018-08-06T07:49:04.383Z,23.97
2018-08-06T07:49:43.357Z,24.11
2018-08-06T07:50:43.268Z,24.17
2018-08-06T07:51:43.200Z,24.19
2018-08-06T07:52:43.117Z,24.30
2018-08-06T07:53:43.055Z,24.42
2018-08-06T07:55:03.964Z,24.56
2018-08-06T07:55:42.949Z,24.50
2018-08-06T07:56:42.842Z,24.60
2018-08-06T07:57:42.848Z,24.64
2018-08-06T07:58:42.711Z,24.80
2018-08-06T07:59:42.703Z,24.88
2018-08-06T08:01:03.543Z,24.94
2018-08-06T08:01:42.499Z,24.88
2018-08-06T08:02:42.422Z,25.05
2018-08-06T08:03:42.359Z,25.13
2018-08-06T08:04:42.280Z,25.17
2018-08-06T08:05:42.228Z,25.28
2018-08-06T08:07:03.123Z,25.27
2018-08-06T08:07:42.076Z,25.45
2018-08-06T08:08:42.011Z,25.53
2018-08-06T08:09:42.004Z,25.72
2018-08-06T08:10:41.869Z,25.77
2018-08-06T08:11:41.804Z,25.90
2018-08-06T08:13:02.714Z,25.97
2018-08-06T08:13:41.722Z,26.12
2018-08-06T08:14:41.590Z,26.23
2018-08-06T08:15:41.629Z,26.43
2018-08-06T08:16:41.449Z,26.50
2018-08-06T08:17:41.439Z,26.75
2018-08-06T08:19:02.307Z,26.71
2018-08-06T08:19:41.372Z,26.83
2018-08-06T08:20:41.178Z,26.95
2018-08-06T08:21:41.156Z,26.90
2018-08-06T08:22:41.054Z,26.95
2018-08-06T08:23:41.073Z,27.01
2018-08-06T08:25:01.894Z,26.94
2018-08-06T08:25:40.848Z,26.83
2018-08-06T08:26:40.834Z,26.83
2018-08-06T08:27:40.787Z,26.86
2018-08-06T08:28:40.638Z,26.92
2018-08-06T08:29:40.596Z,26.90
2018-08-06T08:31:01.487Z,27.04
2018-08-06T08:31:40.617Z,27.16
2018-08-06T08:32:40.370Z,27.27
2018-08-06T08:33:40.409Z,27.38
2018-08-06T08:34:40.232Z,27.45
2018-08-06T08:35:40.325Z,27.42
2018-08-06T08:37:01.078Z,27.57
2018-08-06T08:37:40.226Z,27.50
2018-08-06T08:38:39.961Z,27.38
2018-08-06T08:39:40.070Z,27.36
2018-08-06T08:40:39.824Z,27.35
2018-08-06T08:41:39.949Z,27.39
2018-08-06T08:43:00.683Z,27.39
2018-08-06T08:43:39.754Z,27.42
2018-08-06T08:44:39.566Z,27.61
2018-08-06T08:45:39.740Z,27.74
2018-08-06T08:46:39.425Z,27.87
2018-08-06T08:47:39.479Z,27.98
2018-08-06T08:49:00.277Z,28.24
2018-08-06T08:49:39.395Z,28.43
2018-08-06T08:50:39.156Z,28.44
2018-08-06T08:51:39.312Z,28.36
2018-08-06T08:52:39.024Z,28.43
2018-08-06T08:53:39.112Z,28.43
2018-08-06T08:54:59.882Z,28.61
2018-08-06T08:55:39.026Z,28.65
2018-08-06T08:56:38.757Z,28.56
2018-08-06T08:57:38.691Z,28.61
2018-08-06T08:58:38.700Z,28.44
2018-08-06T08:59:38.747Z,28.38
2018-08-06T09:00:59.477Z,28.39
2018-08-06T09:01:38.553Z,28.36
2018-08-06T09:02:38.407Z,28.49
2018-08-06T09:03:38.467Z,28.61
2018-08-06T09:04:38.236Z,28.59
2018-08-06T09:05:38.374Z,28.72
2018-08-06T09:06:59.126Z,28.78
2018-08-06T09:07:38.185Z,28.76
2018-08-06T09:08:38.015Z,28.87
2018-08-06T09:09:38.097Z,29.04
2018-08-06T09:10:37.839Z,29.14
2018-08-06T09:11:37.908Z,29.28
2018-08-06T09:12:58.696Z,29.26
2018-08-06T09:13:37.817Z,29.36
2018-08-06T09:14:37.589Z,29.46
2018-08-06T09:15:37.627Z,29.50
2018-08-06T09:16:37.441Z,29.50
2018-08-06T09:17:37.535Z,29.48
2018-08-06T09:18:58.306Z,29.51
2018-08-06T09:19:37.456Z,29.46
2018-08-06T09:20:37.183Z,29.47
2018-08-06T09:21:37.259Z,29.51
2018-08-06T09:22:37.066Z,29.51
2018-08-06T09:23:37.066Z,29.56
2018-08-06T09:24:57.910Z,29.65
2018-08-06T09:25:36.981Z,29.68
2018-08-06T09:26:36.795Z,29.81
2018-08-06T09:27:36.896Z,30.00
2018-08-06T09:28:36.667Z,30.12
2018-08-06T09:29:36.699Z,30.14
2018-08-06T09:30:57.521Z,30.30
2018-08-06T09:31:36.610Z,30.32
2018-08-06T09:32:36.406Z,30.29
2018-08-06T09:33:36.532Z,30.37
2018-08-06T09:34:36.273Z,30.34
2018-08-06T09:35:36.336Z,30.27
2018-08-06T09:36:57.133Z,30.22
2018-08-06T09:37:37.167Z,29.97
2018-08-06T09:38:36.020Z,30.24
2018-08-06T09:39:36.053Z,30.46
2018-08-06T09:40:35.923Z,30.46
2018-08-06T09:41:35.860Z,30.49
2018-08-06T09:42:56.746Z,30.49
2018-08-06T09:43:35.771Z,30.62
2018-08-06T09:44:35.636Z,30.57
2018-08-06T09:45:35.683Z,30.55
2018-08-06T09:46:35.510Z,30.49
2018-08-06T09:47:35.492Z,30.56
2018-08-06T09:48:56.356Z,30.60
2018-08-06T09:49:35.405Z,30.71
2018-08-06T09:50:35.251Z,30.87
2018-08-06T09:51:35.219Z,30.90
2018-08-06T09:52:35.130Z,30.89
2018-08-06T09:53:35.124Z,30.86
2018-08-06T09:54:55.985Z,30.90
2018-08-06T09:55:35.034Z,30.96
2018-08-06T09:56:34.864Z,31.08
2018-08-06T09:57:34.844Z,31.11
2018-08-06T09:58:34.746Z,31.11
2018-08-06T09:59:34.754Z,30.79
2018-08-06T10:00:55.595Z,30.64
2018-08-06T10:01:34.667Z,30.65
2018-08-06T10:02:34.478Z,30.62
2018-08-06T10:03:34.474Z,30.78
2018-08-06T10:04:34.362Z,30.94
2018-08-06T10:05:34.410Z,31.21
2018-08-06T10:06:55.210Z,31.36
2018-08-06T10:07:34.197Z,31.29
2018-08-06T10:08:34.099Z,31.29
2018-08-06T10:09:34.104Z,31.34
2018-08-06T10:10:33.978Z,31.48
2018-08-06T10:11:34.012Z,31.46
2018-08-06T10:12:54.832Z,31.63
2018-08-06T10:13:33.824Z,31.75
2018-08-06T10:14:33.718Z,31.78
2018-08-06T10:15:33.736Z,31.68
2018-08-06T10:16:33.593Z,31.53
2018-08-06T10:17:33.644Z,31.29
2018-08-06T10:18:54.552Z,31.21
2018-08-06T10:19:33.485Z,31.07
2018-08-06T10:20:33.360Z,31.14
2018-08-06T10:21:33.368Z,31.15
2018-08-06T10:22:33.218Z,31.18
2018-08-06T10:23:33.172Z,31.27
2018-08-06T10:24:54.074Z,31.07
2018-08-06T10:25:33.089Z,31.09
2018-08-06T10:26:32.969Z,31.11
2018-08-06T10:27:32.994Z,31.09
2018-08-06T10:28:32.834Z,31.15
2018-08-06T10:29:32.805Z,31.24
2018-08-06T10:30:53.691Z,31.29
2018-08-06T10:31:32.644Z,31.24
2018-08-06T10:32:32.614Z,31.29
2018-08-06T10:33:32.518Z,31.38
2018-08-06T10:34:32.529Z,31.58
2018-08-06T10:35:32.391Z,31.67
2018-08-06T10:36:53.433Z,31.78
2018-08-06T10:37:32.267Z,31.52
2018-08-06T10:38:32.210Z,31.38
2018-08-06T10:39:32.158Z,31.39
2018-08-06T10:40:32.198Z,31.33
2018-08-06T10:41:32.062Z,31.33
2018-08-06T10:42:52.938Z,31.07
2018-08-06T10:43:32.525Z,30.89
2018-08-06T10:44:31.826Z,30.60
2018-08-06T10:45:31.768Z,30.86
2018-08-06T10:46:31.698Z,30.90
2018-08-06T10:47:31.644Z,30.83
2018-08-06T10:48:52.591Z,30.77
2018-08-06T10:49:31.514Z,30.79
2018-08-06T10:50:31.453Z,31.07
2018-08-06T10:51:31.395Z,31.02
2018-08-06T10:52:31.331Z,31.04
2018-08-06T10:53:31.256Z,31.09
2018-08-06T10:54:52.225Z,31.20
2018-08-06T10:55:31.131Z,31.24
2018-08-06T10:56:31.079Z,31.42
2018-08-06T10:57:31.202Z,31.42
2018-08-06T10:58:30.942Z,31.61
2018-08-06T10:59:31.006Z,31.67
2018-08-06T11:00:51.799Z,31.76
2018-08-06T11:01:30.889Z,31.94
2018-08-06T11:02:30.690Z,31.95
2018-08-06T11:03:30.676Z,31.90
2018-08-06T11:04:30.563Z,31.87
2018-08-06T11:05:30.587Z,31.95
2018-08-06T11:06:51.427Z,31.96
2018-08-06T11:07:30.399Z,31.99
2018-08-06T11:08:30.314Z,32.02
2018-08-06T11:09:30.339Z,32.01
2018-08-06T11:10:30.199Z,31.87
2018-08-06T11:11:30.224Z,31.91
2018-08-06T11:12:51.059Z,31.70
2018-08-06T11:13:30.032Z,31.52
2018-08-06T11:14:29.973Z,31.52
2018-08-06T11:15:29.943Z,31.31
2018-08-06T11:16:29.812Z,31.29
2018-08-06T11:17:29.846Z,31.15
2018-08-06T11:18:50.679Z,31.23
2018-08-06T11:19:29.661Z,31.30
2018-08-06T11:20:29.572Z,31.41
2018-08-06T11:21:29.577Z,31.27
2018-08-06T11:22:29.438Z,31.45
2018-08-06T11:23:29.483Z,31.39
2018-08-06T11:24:50.298Z,31.51
2018-08-06T11:25:29.293Z,31.61
2018-08-06T11:26:29.184Z,31.79
2018-08-06T11:27:29.205Z,31.95
2018-08-06T11:28:29.116Z,32.06
2018-08-06T11:29:29.122Z,32.25
2018-08-06T11:30:49.920Z,32.35
2018-08-06T11:31:28.926Z,32.43
2018-08-06T11:32:28.816Z,32.55
2018-08-06T11:33:28.837Z,32.57
2018-08-06T11:34:28.692Z,32.75
2018-08-06T11:35:28.651Z,32.73
2018-08-06T11:36:49.594Z,32.60
2018-08-06T11:37:28.565Z,32.32
2018-08-06T11:38:28.434Z,32.08
2018-08-06T11:39:28.465Z,32.03
2018-08-06T11:40:28.304Z,31.82
2018-08-06T11:41:28.272Z,31.41
2018-08-06T11:42:49.169Z,31.14
2018-08-06T11:43:28.185Z,31.07
2018-08-06T11:44:28.056Z,30.97
2018-08-06T11:45:28.106Z,31.01
2018-08-06T11:46:27.946Z,30.93
2018-08-06T11:47:27.909Z,31.11
2018-08-06T11:48:48.823Z,31.15
2018-08-06T11:49:27.818Z,31.20
2018-08-06T11:50:27.685Z,31.38
2018-08-06T11:51:27.727Z,31.53
2018-08-06T11:52:27.573Z,31.55
2018-08-06T11:53:27.540Z,31.73
2018-08-06T11:54:48.472Z,31.75
2018-08-06T11:55:27.449Z,31.71
2018-08-06T11:56:27.351Z,31.89
2018-08-06T11:57:27.360Z,32.03
2018-08-06T11:58:27.226Z,32.23
2018-08-06T11:59:27.201Z,32.45
2018-08-06T12:00:48.051Z,32.64
2018-08-06T12:01:27.076Z,32.70
2018-08-06T12:02:26.945Z,32.72
2018-08-06T12:03:26.991Z,32.88
2018-08-06T12:04:26.817Z,32.73
2018-08-06T12:05:26.811Z,33.01
2018-08-06T12:06:47.723Z,33.11
2018-08-06T12:07:26.720Z,33.10
2018-08-06T12:08:26.595Z,33.16
2018-08-06T12:09:26.520Z,33.09
2018-08-06T12:10:26.441Z,33.21
2018-08-06T12:11:26.459Z,33.04
2018-08-06T12:12:47.408Z,32.91
2018-08-06T12:13:26.340Z,32.79
2018-08-06T12:14:26.194Z,32.72
2018-08-06T12:15:26.149Z,32.77
2018-08-06T12:16:26.072Z,32.67
2018-08-06T12:17:26.058Z,32.54
2018-08-06T12:18:46.942Z,32.45
2018-08-06T12:19:25.977Z,32.46
2018-08-06T12:20:25.882Z,32.50
2018-08-06T12:21:25.780Z,32.39
2018-08-06T12:22:25.697Z,32.21
2018-08-06T12:23:25.691Z,32.20
2018-08-06T12:24:46.562Z,32.36
2018-08-06T12:25:25.601Z,32.36
2018-08-06T12:26:25.501Z,32.53
2018-08-06T12:27:25.429Z,32.62
2018-08-06T12:28:25.338Z,32.72
2018-08-06T12:29:25.346Z,32.91
2018-08-06T12:30:46.189Z,33.07
2018-08-06T12:31:25.276Z,33.26
2018-08-06T12:32:25.080Z,33.27
2018-08-06T12:33:25.041Z,33.42
2018-08-06T12:34:24.965Z,33.54
2018-08-06T12:35:24.963Z,33.60
2018-08-06T12:36:45.817Z,33.77
2018-08-06T12:37:24.869Z,33.83
2018-08-06T12:38:24.708Z,33.60
2018-08-06T12:39:24.676Z,33.48
2018-08-06T12:40:24.584Z,33.21
2018-08-06T12:41:24.583Z,33.14
2018-08-06T12:42:45.451Z,32.89
2018-08-06T12:43:24.402Z,32.42
2018-08-06T12:44:24.337Z,32.31
2018-08-06T12:45:24.281Z,32.17
2018-08-06T12:46:24.207Z,32.11
2018-08-06T12:47:24.157Z,32.14
2018-08-06T12:48:45.076Z,32.20
2018-08-06T12:49:24.033Z,32.35
2018-08-06T12:50:23.967Z,32.61
2018-08-06T12:51:23.914Z,32.61